sensor_id;sensor_type;location;lat;lon;timestamp;temperature;humidity
27266;DHT22;14766;51.380;13.762;2024-01-30T00:02:20;7.60;56.80
27266;DHT22;14766;51.380;13.762;2024-01-30T00:04:48;7.60;56.80
27266;DHT22;14766;51.380;13.762;2024-01-30T00:07:15;7.60;57.00
27266;DHT22;14766;51.380;13.762;2024-01-30T00:09:42;7.60;57.10
27266;DHT22;14766;51.380;13.762;2024-01-30T00:12:09;7.60;57.20
27266;DHT22;14766;51.380;13.762;2024-01-30T00:14:37;7.60;57.30
27266;DHT22;14766;51.380;13.762;2024-01-30T00:17:04;7.50;57.40
27266;DHT22;14766;51.380;13.762;2024-01-30T00:19:31;7.50;57.50
27266;DHT22;14766;51.380;13.762;2024-01-30T00:21:59;7.50;57.60
27266;DHT22;14766;51.380;13.762;2024-01-30T00:24:26;7.50;57.60
27266;DHT22;14766;51.380;13.762;2024-01-30T00:26:53;7.50;57.70
27266;DHT22;14766;51.380;13.762;2024-01-30T00:29:20;7.40;57.70
27266;DHT22;14766;51.380;13.762;2024-01-30T00:31:49;7.40;57.70
27266;DHT22;14766;51.380;13.762;2024-01-30T00:34:16;7.40;57.80
27266;DHT22;14766;51.380;13.762;2024-01-30T00:36:43;7.40;57.90
27266;DHT22;14766;51.380;13.762;2024-01-30T00:39:10;7.40;58.00
27266;DHT22;14766;51.380;13.762;2024-01-30T00:41:38;7.40;58.10
27266;DHT22;14766;51.380;13.762;2024-01-30T00:44:05;7.40;58.00
27266;DHT22;14766;51.380;13.762;2024-01-30T00:46:34;7.30;58.00
27266;DHT22;14766;51.380;13.762;2024-01-30T00:49:01;7.40;58.00
27266;DHT22;14766;51.380;13.762;2024-01-30T00:51:28;7.30;58.00
27266;DHT22;14766;51.380;13.762;2024-01-30T00:53:56;7.30;58.00
27266;DHT22;14766;51.380;13.762;2024-01-30T00:56:23;7.30;57.80
27266;DHT22;14766;51.380;13.762;2024-01-30T00:58:51;7.30;58.00
27266;DHT22;14766;51.380;13.762;2024-01-30T01:01:18;7.30;58.00
27266;DHT22;14766;51.380;13.762;2024-01-30T01:03:47;7.30;58.20
27266;DHT22;14766;51.380;13.762;2024-01-30T01:06:15;7.30;58.20
27266;DHT22;14766;51.380;13.762;2024-01-30T01:08:43;7.30;58.10
27266;DHT22;14766;51.380;13.762;2024-01-30T01:11:10;7.30;58.90
27266;DHT22;14766;51.380;13.762;2024-01-30T01:13:37;7.20;58.20
27266;DHT22;14766;51.380;13.762;2024-01-30T01:16:04;7.20;58.10
27266;DHT22;14766;51.380;13.762;2024-01-30T01:18:31;7.20;58.20
27266;DHT22;14766;51.380;13.762;2024-01-30T01:20:59;7.20;58.10
27266;DHT22;14766;51.380;13.762;2024-01-30T01:23:27;7.20;58.10
27266;DHT22;14766;51.380;13.762;2024-01-30T01:25:55;7.20;58.00
27266;DHT22;14766;51.380;13.762;2024-01-30T01:28:27;7.20;58.00
27266;DHT22;14766;51.380;13.762;2024-01-30T01:30:54;7.20;58.10
27266;DHT22;14766;51.380;13.762;2024-01-30T01:33:26;7.20;58.00
27266;DHT22;14766;51.380;13.762;2024-01-30T01:35:53;7.20;58.00
27266;DHT22;14766;51.380;13.762;2024-01-30T01:38:21;7.20;58.00
27266;DHT22;14766;51.380;13.762;2024-01-30T01:40:48;7.20;57.90
27266;DHT22;14766;51.380;13.762;2024-01-30T01:43:15;7.20;57.90
27266;DHT22;14766;51.380;13.762;2024-01-30T01:45:42;7.20;57.90
27266;DHT22;14766;51.380;13.762;2024-01-30T01:48:09;7.20;58.00
27266;DHT22;14766;51.380;13.762;2024-01-30T01:50:38;7.20;58.00
27266;DHT22;14766;51.380;13.762;2024-01-30T01:53:07;7.20;58.00
27266;DHT22;14766;51.380;13.762;2024-01-30T01:55:35;7.20;58.10
27266;DHT22;14766;51.380;13.762;2024-01-30T01:58:02;7.20;58.00
27266;DHT22;14766;51.380;13.762;2024-01-30T02:00:30;7.20;58.00
27266;DHT22;14766;51.380;13.762;2024-01-30T02:02:58;7.10;58.00
27266;DHT22;14766;51.380;13.762;2024-01-30T02:05:26;7.10;58.00
27266;DHT22;14766;51.380;13.762;2024-01-30T02:07:54;7.20;58.20
27266;DHT22;14766;51.380;13.762;2024-01-30T02:10:21;7.10;58.20
27266;DHT22;14766;51.380;13.762;2024-01-30T02:12:49;7.10;58.30
27266;DHT22;14766;51.380;13.762;2024-01-30T02:15:17;7.10;58.30
27266;DHT22;14766;51.380;13.762;2024-01-30T02:17:45;7.10;58.30
27266;DHT22;14766;51.380;13.762;2024-01-30T02:20:12;7.10;58.40
27266;DHT22;14766;51.380;13.762;2024-01-30T02:22:40;7.10;58.30
27266;DHT22;14766;51.380;13.762;2024-01-30T02:25:08;7.10;58.50
27266;DHT22;14766;51.380;13.762;2024-01-30T02:27:35;7.10;58.60
27266;DHT22;14766;51.380;13.762;2024-01-30T02:30:02;7.00;58.60
27266;DHT22;14766;51.380;13.762;2024-01-30T02:32:30;7.00;58.60
27266;DHT22;14766;51.380;13.762;2024-01-30T02:34:57;7.00;58.50
27266;DHT22;14766;51.380;13.762;2024-01-30T02:37:24;7.00;58.40
27266;DHT22;14766;51.380;13.762;2024-01-30T02:39:51;7.10;58.50
27266;DHT22;14766;51.380;13.762;2024-01-30T02:42:18;7.10;58.50
27266;DHT22;14766;51.380;13.762;2024-01-30T02:44:46;7.00;58.60
27266;DHT22;14766;51.380;13.762;2024-01-30T02:47:13;7.00;58.60
27266;DHT22;14766;51.380;13.762;2024-01-30T02:49:40;7.00;58.60
27266;DHT22;14766;51.380;13.762;2024-01-30T02:52:07;7.10;58.60
27266;DHT22;14766;51.380;13.762;2024-01-30T02:54:34;7.00;58.60
27266;DHT22;14766;51.380;13.762;2024-01-30T02:57:01;7.00;58.60
27266;DHT22;14766;51.380;13.762;2024-01-30T02:59:28;7.10;58.50
27266;DHT22;14766;51.380;13.762;2024-01-30T03:01:55;7.10;58.50
27266;DHT22;14766;51.380;13.762;2024-01-30T03:04:23;7.10;58.50
27266;DHT22;14766;51.380;13.762;2024-01-30T03:06:50;7.10;58.60
27266;DHT22;14766;51.380;13.762;2024-01-30T03:09:18;7.10;58.60
27266;DHT22;14766;51.380;13.762;2024-01-30T03:11:45;7.10;58.60
27266;DHT22;14766;51.380;13.762;2024-01-30T03:14:12;7.10;58.60
27266;DHT22;14766;51.380;13.762;2024-01-30T03:16:39;7.00;58.70
27266;DHT22;14766;51.380;13.762;2024-01-30T03:19:07;7.10;58.70
27266;DHT22;14766;51.380;13.762;2024-01-30T03:21:38;7.00;58.80
27266;DHT22;14766;51.380;13.762;2024-01-30T03:24:06;7.10;58.80
27266;DHT22;14766;51.380;13.762;2024-01-30T03:26:34;7.00;58.80
27266;DHT22;14766;51.380;13.762;2024-01-30T03:29:01;7.00;58.80
27266;DHT22;14766;51.380;13.762;2024-01-30T03:31:28;7.00;58.70
27266;DHT22;14766;51.380;13.762;2024-01-30T03:33:56;7.00;58.80
27266;DHT22;14766;51.380;13.762;2024-01-30T03:36:23;7.00;58.80
27266;DHT22;14766;51.380;13.762;2024-01-30T03:38:51;7.00;58.90
27266;DHT22;14766;51.380;13.762;2024-01-30T03:41:19;7.00;59.60
27266;DHT22;14766;51.380;13.762;2024-01-30T03:43:47;7.00;58.90
27266;DHT22;14766;51.380;13.762;2024-01-30T03:46:14;7.00;59.00
27266;DHT22;14766;51.380;13.762;2024-01-30T03:48:41;7.00;58.90
27266;DHT22;14766;51.380;13.762;2024-01-30T03:51:09;7.00;58.90
27266;DHT22;14766;51.380;13.762;2024-01-30T03:53:42;6.90;58.90
27266;DHT22;14766;51.380;13.762;2024-01-30T03:56:09;6.90;58.90
27266;DHT22;14766;51.380;13.762;2024-01-30T03:58:36;6.90;58.90
27266;DHT22;14766;51.380;13.762;2024-01-30T04:01:03;7.00;59.00
27266;DHT22;14766;51.380;13.762;2024-01-30T04:03:30;7.00;59.00
27266;DHT22;14766;51.380;13.762;2024-01-30T04:05:58;7.00;59.00
27266;DHT22;14766;51.380;13.762;2024-01-30T04:08:25;6.90;59.00
27266;DHT22;14766;51.380;13.762;2024-01-30T04:10:52;6.90;59.00
27266;DHT22;14766;51.380;13.762;2024-01-30T04:13:19;6.90;59.00
27266;DHT22;14766;51.380;13.762;2024-01-30T04:15:46;6.90;59.10
27266;DHT22;14766;51.380;13.762;2024-01-30T04:18:13;6.90;58.90
27266;DHT22;14766;51.380;13.762;2024-01-30T04:20:41;6.90;59.20
27266;DHT22;14766;51.380;13.762;2024-01-30T04:23:08;6.90;59.10
27266;DHT22;14766;51.380;13.762;2024-01-30T04:25:35;6.90;59.20
27266;DHT22;14766;51.380;13.762;2024-01-30T04:28:02;6.90;59.10
27266;DHT22;14766;51.380;13.762;2024-01-30T04:30:29;6.90;59.00
27266;DHT22;14766;51.380;13.762;2024-01-30T04:32:56;6.90;58.90
27266;DHT22;14766;51.380;13.762;2024-01-30T04:35:24;6.90;58.70
27266;DHT22;14766;51.380;13.762;2024-01-30T04:37:52;6.90;58.60
27266;DHT22;14766;51.380;13.762;2024-01-30T04:40:21;6.90;58.50
27266;DHT22;14766;51.380;13.762;2024-01-30T04:42:48;7.00;58.60
27266;DHT22;14766;51.380;13.762;2024-01-30T04:45:15;7.00;58.50
27266;DHT22;14766;51.380;13.762;2024-01-30T04:47:42;7.00;58.40
27266;DHT22;14766;51.380;13.762;2024-01-30T04:50:09;7.00;58.50
27266;DHT22;14766;51.380;13.762;2024-01-30T04:52:37;7.00;58.30
27266;DHT22;14766;51.380;13.762;2024-01-30T04:55:04;7.00;58.20
27266;DHT22;14766;51.380;13.762;2024-01-30T04:57:31;7.00;58.20
27266;DHT22;14766;51.380;13.762;2024-01-30T05:00:10;7.00;58.30
27266;DHT22;14766;51.380;13.762;2024-01-30T05:02:38;7.00;58.30
27266;DHT22;14766;51.380;13.762;2024-01-30T05:05:05;7.00;58.50
27266;DHT22;14766;51.380;13.762;2024-01-30T05:07:33;7.00;58.30
27266;DHT22;14766;51.380;13.762;2024-01-30T05:10:00;7.00;58.30
27266;DHT22;14766;51.380;13.762;2024-01-30T05:12:32;7.00;58.50
27266;DHT22;14766;51.380;13.762;2024-01-30T05:14:59;7.00;58.60
27266;DHT22;14766;51.380;13.762;2024-01-30T05:17:26;7.00;58.70
27266;DHT22;14766;51.380;13.762;2024-01-30T05:19:53;6.90;58.70
27266;DHT22;14766;51.380;13.762;2024-01-30T05:22:20;6.90;58.90
27266;DHT22;14766;51.380;13.762;2024-01-30T05:24:47;6.90;59.10
27266;DHT22;14766;51.380;13.762;2024-01-30T05:27:15;6.90;59.10
27266;DHT22;14766;51.380;13.762;2024-01-30T05:29:42;6.80;59.20
27266;DHT22;14766;51.380;13.762;2024-01-30T05:32:09;6.80;59.10
27266;DHT22;14766;51.380;13.762;2024-01-30T05:34:37;6.80;59.10
27266;DHT22;14766;51.380;13.762;2024-01-30T05:37:05;6.80;59.30
27266;DHT22;14766;51.380;13.762;2024-01-30T05:39:32;6.80;59.30
27266;DHT22;14766;51.380;13.762;2024-01-30T05:42:00;6.80;59.40
27266;DHT22;14766;51.380;13.762;2024-01-30T05:44:27;6.80;59.20
27266;DHT22;14766;51.380;13.762;2024-01-30T05:46:54;6.80;59.10
27266;DHT22;14766;51.380;13.762;2024-01-30T05:49:21;6.80;59.10
27266;DHT22;14766;51.380;13.762;2024-01-30T05:51:48;6.80;59.10
27266;DHT22;14766;51.380;13.762;2024-01-30T05:54:16;6.80;59.20
27266;DHT22;14766;51.380;13.762;2024-01-30T05:56:43;6.90;59.20
27266;DHT22;14766;51.380;13.762;2024-01-30T05:59:10;6.80;59.20
27266;DHT22;14766;51.380;13.762;2024-01-30T06:01:44;6.80;59.20
27266;DHT22;14766;51.380;13.762;2024-01-30T06:04:12;6.80;59.20
27266;DHT22;14766;51.380;13.762;2024-01-30T06:06:39;6.80;59.10
27266;DHT22;14766;51.380;13.762;2024-01-30T06:09:06;6.80;59.30
27266;DHT22;14766;51.380;13.762;2024-01-30T06:11:36;6.80;59.20
27266;DHT22;14766;51.380;13.762;2024-01-30T06:14:03;6.80;59.40
27266;DHT22;14766;51.380;13.762;2024-01-30T06:16:30;6.80;59.40
27266;DHT22;14766;51.380;13.762;2024-01-30T06:18:57;6.80;59.20
27266;DHT22;14766;51.380;13.762;2024-01-30T06:21:24;6.80;59.50
27266;DHT22;14766;51.380;13.762;2024-01-30T06:23:51;6.80;59.50
27266;DHT22;14766;51.380;13.762;2024-01-30T06:26:18;6.80;59.70
27266;DHT22;14766;51.380;13.762;2024-01-30T06:28:45;6.80;60.00
27266;DHT22;14766;51.380;13.762;2024-01-30T06:31:12;6.80;60.20
27266;DHT22;14766;51.380;13.762;2024-01-30T06:33:39;6.70;60.30
27266;DHT22;14766;51.380;13.762;2024-01-30T06:36:10;6.70;60.10
27266;DHT22;14766;51.380;13.762;2024-01-30T06:38:38;6.70;60.40
27266;DHT22;14766;51.380;13.762;2024-01-30T06:41:05;6.70;60.40
27266;DHT22;14766;51.380;13.762;2024-01-30T06:43:32;6.70;60.50
27266;DHT22;14766;51.380;13.762;2024-01-30T06:45:59;6.70;60.50
27266;DHT22;14766;51.380;13.762;2024-01-30T06:48:27;6.70;60.50
27266;DHT22;14766;51.380;13.762;2024-01-30T06:50:54;6.70;60.60
27266;DHT22;14766;51.380;13.762;2024-01-30T06:53:22;6.70;60.60
27266;DHT22;14766;51.380;13.762;2024-01-30T06:55:49;6.70;60.70
27266;DHT22;14766;51.380;13.762;2024-01-30T06:58:19;6.70;60.80
27266;DHT22;14766;51.380;13.762;2024-01-30T07:00:46;6.70;60.80
27266;DHT22;14766;51.380;13.762;2024-01-30T07:03:13;6.70;60.90
27266;DHT22;14766;51.380;13.762;2024-01-30T07:05:40;6.70;61.00
27266;DHT22;14766;51.380;13.762;2024-01-30T07:08:08;6.70;61.00
27266;DHT22;14766;51.380;13.762;2024-01-30T07:10:36;6.80;60.90
27266;DHT22;14766;51.380;13.762;2024-01-30T07:13:03;6.80;60.80
27266;DHT22;14766;51.380;13.762;2024-01-30T07:15:32;6.80;60.80
27266;DHT22;14766;51.380;13.762;2024-01-30T07:17:59;6.80;60.70
27266;DHT22;14766;51.380;13.762;2024-01-30T07:20:26;6.90;60.80
27266;DHT22;14766;51.380;13.762;2024-01-30T07:22:54;7.00;60.80
27266;DHT22;14766;51.380;13.762;2024-01-30T07:25:21;7.10;60.60
27266;DHT22;14766;51.380;13.762;2024-01-30T07:27:54;7.10;60.40
27266;DHT22;14766;51.380;13.762;2024-01-30T07:30:21;7.20;60.20
27266;DHT22;14766;51.380;13.762;2024-01-30T07:32:50;7.30;59.90
27266;DHT22;14766;51.380;13.762;2024-01-30T07:35:17;7.30;59.70
27266;DHT22;14766;51.380;13.762;2024-01-30T07:37:44;7.40;59.50
27266;DHT22;14766;51.380;13.762;2024-01-30T07:40:11;7.40;59.30
27266;DHT22;14766;51.380;13.762;2024-01-30T07:42:39;7.50;59.40
27266;DHT22;14766;51.380;13.762;2024-01-30T07:45:06;7.60;59.50
27266;DHT22;14766;51.380;13.762;2024-01-30T07:47:33;7.70;59.30
27266;DHT22;14766;51.380;13.762;2024-01-30T07:50:00;7.90;58.90
27266;DHT22;14766;51.380;13.762;2024-01-30T07:52:29;8.00;58.60
27266;DHT22;14766;51.380;13.762;2024-01-30T07:54:57;8.20;58.00
27266;DHT22;14766;51.380;13.762;2024-01-30T07:57:26;8.40;57.40
27266;DHT22;14766;51.380;13.762;2024-01-30T07:59:53;8.50;56.80
27266;DHT22;14766;51.380;13.762;2024-01-30T08:02:21;8.50;56.60
27266;DHT22;14766;51.380;13.762;2024-01-30T08:04:49;8.60;56.40
27266;DHT22;14766;51.380;13.762;2024-01-30T08:07:16;8.60;56.10
27266;DHT22;14766;51.380;13.762;2024-01-30T08:09:44;8.70;56.10
27266;DHT22;14766;51.380;13.762;2024-01-30T08:12:12;8.70;56.10
27266;DHT22;14766;51.380;13.762;2024-01-30T08:14:40;8.70;55.80
27266;DHT22;14766;51.380;13.762;2024-01-30T08:17:08;8.80;55.60
27266;DHT22;14766;51.380;13.762;2024-01-30T08:19:35;8.80;55.70
27266;DHT22;14766;51.380;13.762;2024-01-30T08:22:02;8.90;55.50
27266;DHT22;14766;51.380;13.762;2024-01-30T08:24:29;9.00;55.70
27266;DHT22;14766;51.380;13.762;2024-01-30T08:26:56;9.20;55.70
27266;DHT22;14766;51.380;13.762;2024-01-30T08:29:25;9.30;55.10
27266;DHT22;14766;51.380;13.762;2024-01-30T08:31:53;9.40;54.50
27266;DHT22;14766;51.380;13.762;2024-01-30T08:34:22;9.50;54.30
27266;DHT22;14766;51.380;13.762;2024-01-30T08:36:49;9.60;54.10
27266;DHT22;14766;51.380;13.762;2024-01-30T08:39:17;9.70;53.70
27266;DHT22;14766;51.380;13.762;2024-01-30T08:41:45;9.70;53.20
27266;DHT22;14766;51.380;13.762;2024-01-30T08:44:14;9.70;53.00
27266;DHT22;14766;51.380;13.762;2024-01-30T08:46:41;9.80;53.30
27266;DHT22;14766;51.380;13.762;2024-01-30T08:49:09;9.80;53.20
27266;DHT22;14766;51.380;13.762;2024-01-30T08:51:36;9.90;53.50
27266;DHT22;14766;51.380;13.762;2024-01-30T08:54:04;10.00;53.70
27266;DHT22;14766;51.380;13.762;2024-01-30T08:56:31;10.10;53.40
27266;DHT22;14766;51.380;13.762;2024-01-30T08:58:58;10.30;52.90
27266;DHT22;14766;51.380;13.762;2024-01-30T09:01:25;10.50;52.30
27266;DHT22;14766;51.380;13.762;2024-01-30T09:03:52;10.70;51.90
27266;DHT22;14766;51.380;13.762;2024-01-30T09:06:20;10.80;51.30
27266;DHT22;14766;51.380;13.762;2024-01-30T09:08:47;10.90;50.90
27266;DHT22;14766;51.380;13.762;2024-01-30T09:11:14;11.00;50.60
27266;DHT22;14766;51.380;13.762;2024-01-30T09:13:42;11.10;50.20
27266;DHT22;14766;51.380;13.762;2024-01-30T09:16:09;11.20;49.50
27266;DHT22;14766;51.380;13.762;2024-01-30T09:18:36;11.30;49.50
27266;DHT22;14766;51.380;13.762;2024-01-30T09:21:04;11.30;49.10
27266;DHT22;14766;51.380;13.762;2024-01-30T09:23:31;11.30;49.10
27266;DHT22;14766;51.380;13.762;2024-01-30T09:25:58;11.30;49.10
27266;DHT22;14766;51.380;13.762;2024-01-30T09:28:25;11.20;49.20
27266;DHT22;14766;51.380;13.762;2024-01-30T09:30:53;11.20;49.50
27266;DHT22;14766;51.380;13.762;2024-01-30T09:33:20;11.30;49.70
27266;DHT22;14766;51.380;13.762;2024-01-30T09:35:48;11.30;49.60
27266;DHT22;14766;51.380;13.762;2024-01-30T09:38:15;11.30;49.40
27266;DHT22;14766;51.380;13.762;2024-01-30T09:40:42;11.30;48.80
27266;DHT22;14766;51.380;13.762;2024-01-30T09:43:15;11.30;48.90
27266;DHT22;14766;51.380;13.762;2024-01-30T09:45:58;11.30;49.00
27266;DHT22;14766;51.380;13.762;2024-01-30T09:48:30;11.30;49.10
27266;DHT22;14766;51.380;13.762;2024-01-30T09:50:57;11.30;49.10
27266;DHT22;14766;51.380;13.762;2024-01-30T09:53:25;11.30;49.00
27266;DHT22;14766;51.380;13.762;2024-01-30T09:55:52;11.40;48.80
27266;DHT22;14766;51.380;13.762;2024-01-30T09:58:19;11.40;48.90
27266;DHT22;14766;51.380;13.762;2024-01-30T10:00:47;11.50;48.90
27266;DHT22;14766;51.380;13.762;2024-01-30T10:03:14;11.70;48.60
27266;DHT22;14766;51.380;13.762;2024-01-30T10:05:44;11.80;48.40
27266;DHT22;14766;51.380;13.762;2024-01-30T10:08:17;12.00;48.00
27266;DHT22;14766;51.380;13.762;2024-01-30T10:10:49;12.20;47.30
27266;DHT22;14766;51.380;13.762;2024-01-30T10:13:17;12.40;46.60
27266;DHT22;14766;51.380;13.762;2024-01-30T10:15:44;12.50;46.50
27266;DHT22;14766;51.380;13.762;2024-01-30T10:18:13;12.60;46.10
27266;DHT22;14766;51.380;13.762;2024-01-30T10:20:40;12.70;46.20
27266;DHT22;14766;51.380;13.762;2024-01-30T10:23:07;12.70;45.60
27266;DHT22;14766;51.380;13.762;2024-01-30T10:25:35;12.80;45.30
27266;DHT22;14766;51.380;13.762;2024-01-30T10:28:03;12.80;45.40
27266;DHT22;14766;51.380;13.762;2024-01-30T10:30:31;12.90;45.10
27266;DHT22;14766;51.380;13.762;2024-01-30T10:32:59;12.90;45.10
27266;DHT22;14766;51.380;13.762;2024-01-30T10:35:26;13.00;44.70
27266;DHT22;14766;51.380;13.762;2024-01-30T10:37:57;13.00;44.40
27266;DHT22;14766;51.380;13.762;2024-01-30T10:40:28;12.90;44.60
27266;DHT22;14766;51.380;13.762;2024-01-30T10:42:56;12.90;44.70
27266;DHT22;14766;51.380;13.762;2024-01-30T10:45:26;12.90;45.00
27266;DHT22;14766;51.380;13.762;2024-01-30T10:47:55;12.90;45.00
27266;DHT22;14766;51.380;13.762;2024-01-30T10:50:25;12.80;45.00
27266;DHT22;14766;51.380;13.762;2024-01-30T10:52:55;12.70;44.90
27266;DHT22;14766;51.380;13.762;2024-01-30T10:55:22;12.70;45.10
27266;DHT22;14766;51.380;13.762;2024-01-30T10:57:53;12.60;45.10
27266;DHT22;14766;51.380;13.762;2024-01-30T11:00:21;12.50;45.40
27266;DHT22;14766;51.380;13.762;2024-01-30T11:02:51;12.40;46.40
27266;DHT22;14766;51.380;13.762;2024-01-30T11:05:25;12.40;46.00
27266;DHT22;14766;51.380;13.762;2024-01-30T11:08:13;12.40;46.10
27266;DHT22;14766;51.380;13.762;2024-01-30T11:10:47;12.30;46.20
27266;DHT22;14766;51.380;13.762;2024-01-30T11:13:15;12.30;46.00
27266;DHT22;14766;51.380;13.762;2024-01-30T11:15:42;12.30;46.20
27266;DHT22;14766;51.380;13.762;2024-01-30T11:18:23;12.20;46.10
27266;DHT22;14766;51.380;13.762;2024-01-30T11:20:51;12.20;46.40
27266;DHT22;14766;51.380;13.762;2024-01-30T11:23:18;12.20;46.60
27266;DHT22;14766;51.380;13.762;2024-01-30T11:25:45;12.20;46.70
27266;DHT22;14766;51.380;13.762;2024-01-30T11:28:15;12.10;46.70
27266;DHT22;14766;51.380;13.762;2024-01-30T11:30:43;12.10;46.50
27266;DHT22;14766;51.380;13.762;2024-01-30T11:33:13;12.10;46.80
27266;DHT22;14766;51.380;13.762;2024-01-30T11:35:42;12.10;47.00
27266;DHT22;14766;51.380;13.762;2024-01-30T11:38:11;12.10;47.00
27266;DHT22;14766;51.380;13.762;2024-01-30T11:40:40;12.20;46.90
27266;DHT22;14766;51.380;13.762;2024-01-30T11:43:09;12.10;46.70
27266;DHT22;14766;51.380;13.762;2024-01-30T11:45:37;12.10;46.70
27266;DHT22;14766;51.380;13.762;2024-01-30T11:48:04;12.10;46.80
27266;DHT22;14766;51.380;13.762;2024-01-30T11:50:33;12.10;46.80
27266;DHT22;14766;51.380;13.762;2024-01-30T11:53:02;12.10;46.70
27266;DHT22;14766;51.380;13.762;2024-01-30T11:55:29;12.10;46.70
27266;DHT22;14766;51.380;13.762;2024-01-30T11:58:01;12.10;46.60
27266;DHT22;14766;51.380;13.762;2024-01-30T12:00:30;12.10;46.90
27266;DHT22;14766;51.380;13.762;2024-01-30T12:03:02;12.20;47.00
27266;DHT22;14766;51.380;13.762;2024-01-30T12:05:31;12.20;47.10
27266;DHT22;14766;51.380;13.762;2024-01-30T12:07:58;12.20;46.80
27266;DHT22;14766;51.380;13.762;2024-01-30T12:10:29;12.30;46.80
27266;DHT22;14766;51.380;13.762;2024-01-30T12:12:57;12.30;46.70
27266;DHT22;14766;51.380;13.762;2024-01-30T12:15:25;12.30;46.90
27266;DHT22;14766;51.380;13.762;2024-01-30T12:17:52;12.40;46.90
27266;DHT22;14766;51.380;13.762;2024-01-30T12:20:30;12.40;46.80
27266;DHT22;14766;51.380;13.762;2024-01-30T12:22:57;12.40;46.90
27266;DHT22;14766;51.380;13.762;2024-01-30T12:25:25;12.40;46.70
27266;DHT22;14766;51.380;13.762;2024-01-30T12:27:52;12.40;46.50
27266;DHT22;14766;51.380;13.762;2024-01-30T12:30:20;12.30;46.20
27266;DHT22;14766;51.380;13.762;2024-01-30T12:32:52;12.30;46.10
27266;DHT22;14766;51.380;13.762;2024-01-30T12:35:20;12.20;46.30
27266;DHT22;14766;51.380;13.762;2024-01-30T12:37:49;12.20;46.40
27266;DHT22;14766;51.380;13.762;2024-01-30T12:40:17;12.10;46.40
27266;DHT22;14766;51.380;13.762;2024-01-30T12:42:47;12.00;46.50
27266;DHT22;14766;51.380;13.762;2024-01-30T12:45:17;12.00;46.70
27266;DHT22;14766;51.380;13.762;2024-01-30T12:47:51;11.90;46.70
27266;DHT22;14766;51.380;13.762;2024-01-30T12:50:22;11.90;47.00
27266;DHT22;14766;51.380;13.762;2024-01-30T12:52:49;11.80;47.20
27266;DHT22;14766;51.380;13.762;2024-01-30T12:55:17;11.80;47.40
27266;DHT22;14766;51.380;13.762;2024-01-30T12:57:45;11.70;47.50
27266;DHT22;14766;51.380;13.762;2024-01-30T13:00:13;11.60;47.60
27266;DHT22;14766;51.380;13.762;2024-01-30T13:02:40;11.60;47.90
27266;DHT22;14766;51.380;13.762;2024-01-30T13:05:10;11.50;47.60
27266;DHT22;14766;51.380;13.762;2024-01-30T13:07:37;11.40;47.80
27266;DHT22;14766;51.380;13.762;2024-01-30T13:10:04;11.30;47.80
27266;DHT22;14766;51.380;13.762;2024-01-30T13:12:32;11.30;48.10
27266;DHT22;14766;51.380;13.762;2024-01-30T13:15:01;11.30;48.30
27266;DHT22;14766;51.380;13.762;2024-01-30T13:17:31;11.20;48.50
27266;DHT22;14766;51.380;13.762;2024-01-30T13:20:00;11.20;48.80
27266;DHT22;14766;51.380;13.762;2024-01-30T13:22:37;11.10;48.90
27266;DHT22;14766;51.380;13.762;2024-01-30T13:25:06;11.10;49.00
27266;DHT22;14766;51.380;13.762;2024-01-30T13:27:35;11.10;49.10
27266;DHT22;14766;51.380;13.762;2024-01-30T13:30:03;11.10;49.10
27266;DHT22;14766;51.380;13.762;2024-01-30T13:32:30;11.00;49.20
27266;DHT22;14766;51.380;13.762;2024-01-30T13:34:58;11.00;49.40
27266;DHT22;14766;51.380;13.762;2024-01-30T13:37:25;11.00;49.50
27266;DHT22;14766;51.380;13.762;2024-01-30T13:39:52;11.00;49.60
27266;DHT22;14766;51.380;13.762;2024-01-30T13:42:19;11.00;50.30
27266;DHT22;14766;51.380;13.762;2024-01-30T13:44:46;11.00;49.60
27266;DHT22;14766;51.380;13.762;2024-01-30T13:47:14;11.10;49.60
27266;DHT22;14766;51.380;13.762;2024-01-30T13:49:41;11.00;49.50
27266;DHT22;14766;51.380;13.762;2024-01-30T13:52:08;11.00;49.30
27266;DHT22;14766;51.380;13.762;2024-01-30T13:54:36;11.00;49.20
27266;DHT22;14766;51.380;13.762;2024-01-30T13:57:04;11.00;49.60
27266;DHT22;14766;51.380;13.762;2024-01-30T13:59:31;11.00;49.50
27266;DHT22;14766;51.380;13.762;2024-01-30T14:01:58;11.00;49.40
27266;DHT22;14766;51.380;13.762;2024-01-30T14:04:25;11.00;49.70
27266;DHT22;14766;51.380;13.762;2024-01-30T14:06:52;10.90;49.70
27266;DHT22;14766;51.380;13.762;2024-01-30T14:09:30;10.90;49.60
27266;DHT22;14766;51.380;13.762;2024-01-30T14:11:59;10.90;49.70
27266;DHT22;14766;51.380;13.762;2024-01-30T14:14:26;10.90;49.60
27266;DHT22;14766;51.380;13.762;2024-01-30T14:16:53;10.90;49.40
27266;DHT22;14766;51.380;13.762;2024-01-30T14:19:21;10.80;49.30
27266;DHT22;14766;51.380;13.762;2024-01-30T14:21:48;10.80;49.40
27266;DHT22;14766;51.380;13.762;2024-01-30T14:24:16;10.80;49.50
27266;DHT22;14766;51.380;13.762;2024-01-30T14:26:43;10.70;49.40
27266;DHT22;14766;51.380;13.762;2024-01-30T14:29:11;10.70;49.60
27266;DHT22;14766;51.380;13.762;2024-01-30T14:31:38;10.60;49.70
27266;DHT22;14766;51.380;13.762;2024-01-30T14:34:05;10.60;49.90
27266;DHT22;14766;51.380;13.762;2024-01-30T14:36:32;10.60;50.10
27266;DHT22;14766;51.380;13.762;2024-01-30T14:38:59;10.50;50.30
27266;DHT22;14766;51.380;13.762;2024-01-30T14:41:26;10.50;50.50
27266;DHT22;14766;51.380;13.762;2024-01-30T14:43:54;10.50;50.60
27266;DHT22;14766;51.380;13.762;2024-01-30T14:46:21;10.40;50.60
27266;DHT22;14766;51.380;13.762;2024-01-30T14:48:49;10.40;50.80
27266;DHT22;14766;51.380;13.762;2024-01-30T14:51:18;10.40;51.00
27266;DHT22;14766;51.380;13.762;2024-01-30T14:53:45;10.30;51.00
27266;DHT22;14766;51.380;13.762;2024-01-30T14:56:12;10.20;51.00
27266;DHT22;14766;51.380;13.762;2024-01-30T14:58:40;10.20;51.20
27266;DHT22;14766;51.380;13.762;2024-01-30T15:01:07;10.10;51.20
27266;DHT22;14766;51.380;13.762;2024-01-30T15:03:34;10.10;51.60
27266;DHT22;14766;51.380;13.762;2024-01-30T15:06:02;10.10;51.60
27266;DHT22;14766;51.380;13.762;2024-01-30T15:08:31;10.00;51.80
27266;DHT22;14766;51.380;13.762;2024-01-30T15:10:59;10.00;51.90
27266;DHT22;14766;51.380;13.762;2024-01-30T15:13:26;9.90;52.10
27266;DHT22;14766;51.380;13.762;2024-01-30T15:15:53;9.80;52.30
27266;DHT22;14766;51.380;13.762;2024-01-30T15:18:20;9.80;52.50
27266;DHT22;14766;51.380;13.762;2024-01-30T15:20:48;9.70;52.60
27266;DHT22;14766;51.380;13.762;2024-01-30T15:23:15;9.70;52.80
27266;DHT22;14766;51.380;13.762;2024-01-30T15:25:42;9.60;52.80
27266;DHT22;14766;51.380;13.762;2024-01-30T15:28:10;9.60;53.10
27266;DHT22;14766;51.380;13.762;2024-01-30T15:30:38;9.60;53.30